Ely, Nevada Weather observations

Data are for observation ending at time listed.
 Day   Time    Ave.   Ave.  Ave.  Vector   Max.   Stn.    Total    Solar   Ave.  
  of    of     Air    Rel.  Wind   Wind    Wind   Baro.  Precip.   Rad.    Soil  
Year   Day     Temp.  Hum.  Speed  Dir.    Gust   Pres.                    Temp. 
2015   (PST)    F      %     mph   deg.    mph     mb.     in.     W/m2     F   
------------------------------------------------------------------------------
 208   10:00   69.7    23   13.2   296     20.8   810.5    0.00     985    79.0
 208   10:10   69.8    23   10.0   254     18.3   810.5    0.00    1011    79.7
 208   10:20   70.0    22   12.4   256     22.4   810.5    0.00    1035    80.3
 208   10:30   69.8    22    6.0   261     13.0   810.5    0.00    1006    81.1
 208   10:40   70.5    22    6.0   233     12.6   810.4    0.00    1007    81.7
 208   10:50   71.7    20    7.5   268     18.1   810.4    0.00    1039    82.3
 208   11:00   71.4    19    5.4   250     13.1   810.3    0.00    1052    83.0
 208   11:10   71.8    18    7.2   270     11.8   810.5    0.00    1059    83.8
 208   11:20   72.2    17    6.9   258     14.9   810.4    0.00    1070    84.5
 208   11:30   72.7    16    9.1   258     16.5   810.5    0.00    1076    85.3
 208   11:40   73.0    17   11.1   233     17.2   810.6    0.00    1076    86.2
 208   11:50   72.2    17    9.0   239     19.1   810.6    0.00    1076    86.8
 208   12:00   72.4    17    7.1   277     17.2   810.6    0.00    1076    87.6
 208   12:10   73.1    16    7.5   276     16.7   810.5    0.00    1076    88.2
 208   12:20   73.7    15   10.6   290     15.7   810.5    0.00    1075    88.6
 208   12:30   73.5    15    4.1   315     12.2   810.5    0.00    1066    87.9
 208   12:40   73.9    16    8.6   259     16.9   810.4    0.00    1062    87.1
 208   12:50   74.2    16    7.6   273     17.0   810.4    0.00    1050    87.9
 208   13:00   74.8    15    7.6   267     17.4   810.3    0.00    1038    88.7
 208   13:10   75.4    14   12.4   269     20.0   810.5    0.00    1033    89.5
 208   13:20   74.5    13   11.3   289     25.2   810.6    0.00    1019    90.1
 208   13:30   74.3    13    4.3   274     14.0   810.4    0.00    1000    90.4
 208   13:40   76.2    13    9.9   208     16.8   810.5    0.00     980    90.8
 208   13:50   76.7    13   10.1   276     18.4   810.5    0.00     961    91.0
 208   14:00   76.4    14    5.5   266     10.8   810.4    0.00     942    91.3
 208   14:10   76.2    13   11.3   314     19.9   810.4    0.00     917    91.4
 208   14:20   76.1    14    4.9   312     14.5   810.3    0.00     902    91.3
 208   14:30   75.8    14    5.0   341     16.6   810.2    0.00     877    91.2
 208   14:40   76.9    14    9.5   277     16.5   810.3    0.00     841    91.1
 208   14:50   77.0    14    7.2   268     14.0   810.2    0.00     822    91.0
 208   15:00   77.0    14    7.6   248     15.1   810.2    0.00     791    91.0
 208   15:10   77.4    14    7.2   275     14.0   810.3    0.00     768    90.8
 208   15:20   77.2    14    8.7   285     15.1   810.2    0.00     735    90.5
 208   15:30   77.4    13    8.4   258     17.6   810.4    0.00     692    90.0
 208   15:40   78.0    13    8.9   263     18.0   810.1    0.00     658    89.9
 208   15:50   77.5    12   10.3   270     15.6   810.4    0.00     626    90.2
 208   16:00   77.3    12    9.5   272     15.7   810.1    0.00     592    90.4
 208   16:10   77.4    12    7.2   280     17.3   810.2    0.00     554    90.0
 208   16:20   77.8    12    6.7   282     12.3   810.3    0.00     521    89.8
 208   16:30   77.5    12   11.1   259     18.7   810.2    0.00     483    89.7
 208   16:40   77.3    13   11.5   285     18.7   810.1    0.00     445    89.4
 208   16:50   76.9    12   10.6   292     19.4   810.2    0.00     408    88.9
 208   17:00   77.0    12    7.5   270     20.6   810.2    0.00     369    88.4
 208   17:10   76.9    12   13.4   282     21.9   810.3    0.00      65    87.9
 208   17:20   76.2    12    8.7   310     15.3   810.4    0.00      34    87.2
 208   17:30   76.3    12    8.3   305     12.7   810.5    0.00      34    86.5
 208   17:40   76.6    12   10.8   290     16.7   810.5    0.00      34    85.9
 208   17:50   76.0    12    9.0   304     13.6   810.5    0.00      34    85.4
 208   18:00   75.5    12   10.8   302     18.7   810.6    0.00      30    84.7
 208   18:10   75.2    13    7.6   309     10.3   810.8    0.00      22    84.1
 208   18:20   75.0    13   11.0   287     16.4   810.7    0.00      20    83.4
 208   18:30   74.1    13   12.3   295     16.5   810.9    0.00      20    82.8
 208   18:40   73.4    13    9.8   302     14.8   811.1    0.00      18    82.1
 208   18:50   72.5    13    8.5   303     11.8   811.1    0.00       8    81.4
 208   19:00   71.2    16    7.5   334     13.7   811.4    0.00       7    80.7
 208   19:10  999.0   999  999.0   999    999.0   999.0   999.00     999    999.0
 208   19:20   69.3    20    9.1   348     14.5   811.6    0.00       4    79.7
 208   19:30  999.0   999  999.0   999    999.0   999.0   999.00     999    999.0
 208   19:40   67.9    21    7.4   348     11.7   811.9    0.00       0    78.4
 208   19:50   67.5    21    9.0   353     12.3   812.1    0.00       0    77.6
 208   20:00  999.0   999  999.0   999    999.0   999.0   999.00     999    999.0
 208   20:10   67.0    21   10.3   345     14.9   812.2    0.00       0    76.9
 208   20:20   66.1    22   11.2   342     16.1   812.4    0.00       0    76.2
 208   20:30   65.4    23   10.6   336     15.2   812.5    0.00       0    75.8
 208   20:40   63.7    25   11.2   328     14.2   812.7    0.00       0    75.3
 208   20:50   63.8    25   12.2   329     14.9   812.6    0.00       0    74.9
 208   21:00  999.0   999  999.0   999    999.0   999.0   999.00     999    999.0
 208   21:10   63.7    25   11.8   329     15.1   812.9    0.00       0    74.3
 208   21:20  999.0   999  999.0   999    999.0   999.0   999.00     999    999.0
 208   21:30   62.9    26   13.0   332     18.2   813.0    0.00       0    73.5
 208   21:40   62.7    26   12.1   337     17.0   813.1    0.00       0    73.0
 208   21:50   62.1    26    9.1   344     13.6   813.1    0.00       0    72.7
 208   22:00  999.0   999  999.0   999    999.0   999.0   999.00     999    999.0
 208   22:10   61.4    27    8.6   336     12.9   813.2    0.00       0    72.2
 208   22:20   59.8    29    8.4   324     11.4   813.3    0.00       0    71.7
 208   22:30   58.8    29    8.3   313     10.6   813.2    0.00       1    71.3
 208   22:40   58.9    29    8.3   310     11.2   813.4    0.00       0    70.9
 208   22:50   59.4    28    8.2   322     13.0   813.4    0.00       0    70.6
 208   23:00   58.4    30    7.0   321      9.3   813.3    0.00       0    70.3
 208   23:10   57.6    31    4.7   338      7.4   813.4    0.00       0    70.0
 208   23:20   57.1    31    4.0   340      6.1   813.7    0.00       0    69.7
 208   23:30  999.0   999  999.0   999    999.0   999.0   999.00     999    999.0
 208   23:40   56.8    30    7.5   331     17.0   813.7    0.00       0    69.3
 208   23:50   58.3    28   11.4   338     15.5   813.7    0.00       0    68.9
 209    0:00  999.0   999  999.0   999    999.0   999.0   999.00     999    999.0
 209    0:10   57.0    28    9.1   354     13.4   813.8    0.00       0    68.5
 209    0:20   56.9    27   10.3   347     14.8   813.8    0.00       0    68.1
 209    0:30  999.0   999  999.0   999    999.0   999.0   999.00     999    999.0
 209    0:40   56.0    28   10.9   357     15.8   814.0    0.00       1    67.7
 209    0:50   55.7    28   10.0   351     14.0   813.9    0.00       1    67.3
 209    1:00  999.0   999  999.0   999    999.0   999.0   999.00     999    999.0
 209    1:10   54.8    29   11.6     2     16.0   814.0    0.00       1    66.9
 209    1:20  999.0   999  999.0   999    999.0   999.0   999.00     999    999.0
 209    1:30   54.7    30   12.7   343     17.7   814.1    0.00       1    66.3
 209    1:40   54.1    31   12.2   347     19.3   814.2    0.00       0    66.0
 209    1:50  999.0   999  999.0   999    999.0   999.0   999.00     999    999.0
 209    2:00   54.1    31   13.9   341     20.2   814.3    0.00       0    65.6
 209    2:10   54.2    31   13.9   339     19.2   814.3    0.00       0    65.3
 209    2:20  999.0   999  999.0   999    999.0   999.0   999.00     999    999.0
 209    2:30   54.4    30   14.2   341     20.7   814.4    0.00       0    65.0
 209    2:40   54.1    30   14.3   341     19.3   814.8    0.00       0    64.8
 209    2:50   53.3    31   12.1   350     16.7   814.6    0.00       0    64.6
 209    3:00   51.9    32    9.1     0     13.2   814.8    0.00       0    64.3
 209    3:10   51.0    33    7.1   359      9.6   814.8    0.00       0    64.0
 209    3:20   50.8    33    7.6   358     11.5   814.8    0.00       1    63.7
 209    3:30   50.5    33    7.6   360     10.7   814.9    0.00       0    63.5
 209    3:40   50.3    33    7.5     7     12.7   815.0    0.00       1    63.2
 209    3:50  999.0   999  999.0   999    999.0   999.0   999.00     999    999.0
 209    4:00   49.4    34    4.4    52      8.7   815.2    0.00       0    63.0
 209    4:10   49.6    33    4.8    34      8.0   815.3    0.00       0    62.7
 209    4:20   49.6    34    6.0    12     13.1   815.4    0.00       1    62.5
 209    4:30   49.5    33    9.5     3     14.0   815.4    0.00       6    62.3
 209    4:40   49.6    33    9.2    16     13.0   815.6    0.00       7    62.1
 209    4:50   49.4    34    6.3    23     10.4   815.7    0.00       7    61.9
 209    5:00  999.0   999  999.0   999    999.0   999.0   999.00     999    999.0
 209    5:10   50.0    32    8.2    32     12.9   815.9    0.00      18    61.7
 209    5:20   50.3    32    6.2    26      9.3   816.0    0.00      64    61.5
 209    5:30   51.3    31    4.6    14      7.9   815.8    0.00     127    61.4
 209    5:40   51.5    31    7.9     8     12.4   815.9    0.00     161    61.6
 209    5:50   51.9    31    9.9    17     13.8   815.8    0.00     196    61.8
 209    6:00   52.2    30    9.5    20     14.2   816.0    0.00     231    62.1
 209    6:10   52.4    30    8.3    18     12.3   816.0    0.00     269    62.3
 209    6:20   52.6    30    6.9    14     11.2   816.3    0.00     306    62.5
 209    6:30   53.0    30    6.6    22     10.2   816.1    0.00     343    62.8
 209    6:40   53.7    30    6.9     1     11.2   816.0    0.00     380    63.0
 209    6:50   54.4    29    8.5   349     12.2   815.9    0.00     417    63.2
 209    7:00   55.3    28    9.6   353     13.0   816.0    0.00     453    63.5
 209    7:10   55.7    28    9.5   360     14.2   816.1    0.00     490    63.9
 209    7:20   56.6    27    7.7     8     11.2   816.3    0.00     525    64.5
 209    7:30   57.6    27    7.7   359     11.5   816.3    0.00     561    65.3
 209    7:40   58.5    26    8.7   356     14.2   816.2    0.00     594    66.2
 209    7:50   58.8    25    9.8   358     13.1   816.1    0.00     628    66.9
 209    8:00   60.0    25   10.4   352     19.1   816.1    0.00     661    67.6
 209    8:10   60.0    25   12.9   356     18.4   816.0    0.00     693    68.4
 209    8:20   61.1    24   12.0   348     17.0   815.9    0.00     726    68.5
 209    8:30   61.8    24   11.1   346     15.2   815.9    0.00     756    68.7
 209    8:40   62.4    23   11.1   340     16.2   815.8    0.00     785    69.0
 209    8:50   63.0    23    9.3   346     15.5   815.8    0.00     813    69.5
 209    9:00   63.4    23    9.4   345     14.3   815.7    0.00     841    70.1
 209    9:10   63.8    23    8.4   338     12.4   815.6    0.00     867    70.6
 209    9:20   64.5    22    9.5   340     14.9   815.7    0.00     892    71.2
 209    9:30   65.0    22    7.4   353     13.2   815.6    0.00     914    71.8
 209    9:40   65.7    22    6.6   342     13.2   815.6    0.00     936    72.4
 209    9:50   66.3    21    5.6   349     12.7   815.5    0.00     957    73.1

Return to Ely, Nevada graphs page.


Western Regional Climate Center,wrcc@dri.edu